Terminal Aerodrome Forecast
Issued by NWS

Home | Current Version | Previous Version | Text Only | Print | Product List | Glossary On
Versions: 1 2 3 4 5 6 7 8 9 10 11 12 13 14 15 16 17 18 19 20 21 22 23 24 25 26 27 28 29 30 31 32 33 34 35 36 37 38 39 40 41 42
000
FTUS46 KLOX 200526
TAFBUR
TAF
KBUR 200526Z 2006/2106 16005KT P6SM FEW015
     FM200800 VRB03KT 5SM BR OVC009
     FM201600 14005KT P6SM OVC015
     FM202000 19010G17KT P6SM SCT025
     FM210300 18007KT P6SM BKN015=

USA.gov is the U.S. government's official web portal to all federal, state and local government web resources and services.